EDT,Max TemperatureF,Mean TemperatureF,Min TemperatureF,Max Dew PointF,MeanDew PointF,Min DewpointF,Max Humidity, Mean Humidity, Min Humidity, Max Sea Level PressureIn, Mean Sea Level PressureIn, Min Sea Level PressureIn, Max VisibilityMiles, Mean VisibilityMiles, Min VisibilityMiles, Max Wind SpeedMPH, Mean Wind SpeedMPH, Max Gust SpeedMPH,PrecipitationIn, CloudCover, Events, WindDirDegrees
2013-10-1,73,63,52,60,56,49,93,75,57,29.87,29.77,29.68,10,8,0,26,9,35,0.00,3,Fog,207
2013-10-2,67,58,48,57,44,38,100,67,34,30.06,29.95,29.80,10,9,0,17,8,26,0.00,0,Fog,276
2013-10-3,57,52,47,50,47,44,93,80,67,30.07,30.03,30.00,10,10,4,14,5,23,0.06,6,Rain,79
2013-10-4,63,59,54,50,47,44,89,73,56,30.17,30.08,30.00,10,10,8,15,7,23,0.07,8,Rain,69
2013-10-5,54,50,46,44,42,38,93,77,61,30.16,30.10,29.96,10,9,5,15,9,25,0.48,8,Rain,80
2013-10-6,59,54,48,57,51,45,100,93,86,29.94,29.71,29.56,10,7,1,15,7,25,0.40,8,Rain,117
2013-10-7,55,50,44,54,44,38,93,77,61,30.01,29.67,29.51,10,9,3,23,12,33,0.05,7,Rain,296
2013-10-8,64,51,37,49,41,35,100,72,43,30.19,30.15,30.03,10,7,0,16,7,22,0.00,1,Fog,116
2013-10-9,71,60,48,52,49,46,93,70,47,30.21,30.18,30.15,10,10,9,18,7,23,0.00,0,,145
2013-10-10,69,57,45,52,48,45,100,73,45,30.22,30.19,30.14,10,6,0,13,5,16,0.00,1,Fog,94
2013-10-11,65,58,50,52,49,46,100,76,52,30.19,30.15,30.08,10,7,0,13,6,17,0.00,5,Fog,95
2013-10-12,69,59,49,56,51,47,93,73,53,30.08,30.01,29.96,10,10,7,17,8,24,0.07,2,Rain,114
2013-10-13,61,51,41,58,45,36,93,78,63,30.37,30.20,29.97,10,10,9,18,8,26,0.00,4,,281
2013-10-14,58,46,34,43,36,32,100,74,47,30.44,30.39,30.31,10,8,0,13,3,17,0.00,1,Fog,307
2013-10-15,57,48,38,52,45,35,93,85,77,30.30,30.02,29.73,10,9,4,15,7,27,0.33,5,Rain,105
2013-10-16,56,52,48,54,50,43,100,90,80,29.80,29.65,29.60,10,7,2,20,10,27,0.07,8,Rain,216
2013-10-17,51,47,42,44,41,36,93,75,56,29.84,29.79,29.73,10,9,4,12,3,17,0.09,8,Rain,296
2013-10-18,53,45,37,44,40,35,86,76,66,29.79,29.75,29.72,10,10,6,13,5,17,0.04,7,Rain,267
2013-10-19,51,44,36,42,37,31,89,71,53,29.77,29.71,29.65,10,10,10,15,6,21,0.01,6,Rain,282
2013-10-20,50,42,34,40,36,32,100,81,61,29.80,29.75,29.70,10,7,0,17,6,22,0.01,5,Fog-Rain,105
2013-10-21,48,41,33,45,37,23,96,78,59,29.71,29.64,29.57,10,10,6,20,11,29,0.15,8,Rain,228
2013-10-22,44,36,28,34,30,23,89,73,57,29.83,29.71,29.59,10,8,1,24,9,30,0.18,6,Rain-Snow,300
2013-10-23,38,33,27,33,29,20,96,80,63,29.83,29.78,29.74,10,5,0,18,8,27,0.63,7,Fog-Rain-Snow,274
2013-10-24,44,40,35,34,32,29,89,77,65,30.08,29.93,29.77,10,10,5,16,7,22,0.03,7,Rain-Snow,317
2013-10-25,45,38,30,36,31,26,92,73,53,30.17,30.07,29.74,10,8,1,20,8,26,0.25,7,Rain-Snow,221
2013-10-26,45,39,33,40,35,28,92,75,57,29.90,29.62,29.49,10,9,4,24,12,35,0.17,7,Rain,282
2013-10-27,43,38,32,36,33,29,96,79,62,29.98,29.88,29.81,10,9,2,20,7,27,0.03,7,Rain-Snow,241
2013-10-28,38,33,27,32,21,17,82,65,48,30.49,30.38,30.02,10,10,10,14,7,21,0.00,2,,354
2013-10-29,37,32,27,30,25,21,81,67,52,30.50,30.39,30.22,10,9,2,12,5,14,0.03,5,Snow,169
2013-10-30,48,40,32,44,36,30,100,91,82,30.24,30.13,29.88,10,8,2,10,4,14,0.07,8,Rain-Snow,131
2013-10-31,52,50,47,51,48,44,100,95,89,29.84,29.45,29.03,10,3,0,10,5,16,1.31,8,Fog-Rain,91